Time;durP1;ratioP1;P1;durP2;ratioP2;P2;SDS_P1;SDS_P2;PMS_P1;PMS_P2;Temp;Humidity;BMP_temperature;BMP_pressure;BME280_temperature;BME280_humidity;BME280_pressure;Samples;Min_cycle;Max_cycle;Signal;HPM_P1;HPM_P2
2024/04/02 00:00:35;;;;;;;8.70;1.88;;;;;;;;;;4989252;28;19917;-84
2024/04/02 00:03:03;;;;;;;9.48;2.10;;;;;;;;;;4992747;28;20037;-85
2024/04/02 00:05:29;;;;;;;11.13;2.30;;;;;;;;;;4985541;28;20124;-85
2024/04/02 00:07:55;;;;;;;;;;;;;;;;;;4984233;28;20594;-85
2024/04/02 00:10:21;;;;;;;9.27;1.80;;;;;;;;;;4989006;28;19979;-85
2024/04/02 00:12:48;;;;;;;8.73;2.15;;;;;;;;;;4983784;28;20026;-86
2024/04/02 00:15:14;;;;;;;10.27;2.40;;;;;;;;;;4987170;28;20493;-85
2024/04/02 00:17:40;;;;;;;;;;;;;;;;;;4987101;28;20097;-84
2024/04/02 00:20:07;;;;;;;7.93;2.03;;;;;;;;;;4987454;28;19913;-83
2024/04/02 00:22:33;;;;;;;11.13;2.35;;;;;;;;;;4984548;28;20040;-85
2024/04/02 00:25:00;;;;;;;8.80;1.70;;;;;;;;;;4984971;28;20053;-84
2024/04/02 00:27:29;;;;;;;9.75;1.98;;;;;;;;;;4983871;28;20049;-84
2024/04/02 00:29:55;;;;;;;10.73;2.38;;;;;;;;;;4987109;28;20161;-84
2024/04/02 00:32:21;;;;;;;;;;;;;;;;;;4989750;28;20042;-85
2024/04/02 00:34:51;;;;;;;9.00;1.92;;;;;;;;;;4987306;28;19913;-84
2024/04/02 00:37:17;;;;;;;8.27;1.70;;;;;;;;;;4989663;28;20037;-85
2024/04/02 00:39:44;;;;;;;6.90;1.70;;;;;;;;;;4987151;28;20038;-85
2024/04/02 00:42:11;;;;;;;8.23;1.55;;;;;;;;;;4990407;28;20018;-85
2024/04/02 00:44:38;;;;;;;7.88;2.00;;;;;;;;;;4985453;28;20136;-85
2024/04/02 00:47:05;;;;;;;9.88;2.10;;;;;;;;;;4991047;28;20033;-84
2024/04/02 00:49:32;;;;;;;8.93;2.10;;;;;;;;;;4989523;28;20206;-84
2024/04/02 00:51:59;;;;;;;8.35;1.63;;;;;;;;;;4992469;28;20026;-85
2024/04/02 00:54:25;;;;;;;7.55;1.70;;;;;;;;;;4988849;28;20468;-85
2024/04/02 00:56:52;;;;;;;6.03;1.60;;;;;;;;;;4993444;28;20033;-85
2024/04/02 00:59:21;;;;;;;6.28;1.50;;;;;;;;;;4992608;28;20037;-87
2024/04/02 01:01:50;;;;;;;6.70;1.35;;;;;;;;;;4988622;28;20106;-85
2024/04/02 01:04:17;;;;;;;7.07;1.45;;;;;;;;;;4993036;28;20196;-86
2024/04/02 01:06:43;;;;;;;7.80;1.75;;;;;;;;;;4988637;28;20180;-85
2024/04/02 01:09:10;;;;;;;8.15;2.00;;;;;;;;;;4988815;28;20048;-85
2024/04/02 01:11:37;;;;;;;8.23;1.90;;;;;;;;;;4988196;28;20029;-83
2024/04/02 01:14:03;;;;;;;10.63;2.10;;;;;;;;;;4993257;28;20037;-86
2024/04/02 01:16:29;;;;;;;9.50;1.90;;;;;;;;;;4991240;28;20038;-86
2024/04/02 01:18:55;;;;;;;;;;;;;;;;;;4997272;28;20897;-87
2024/04/02 01:21:22;;;;;;;7.78;1.80;;;;;;;;;;4996630;28;19913;-86
2024/04/02 01:23:48;;;;;;;8.05;1.98;;;;;;;;;;4996486;28;20043;-84
2024/04/02 01:26:14;;;;;;;8.75;1.88;;;;;;;;;;4997801;28;20060;-85
2024/04/02 01:28:41;;;;;;;;;;;;;;;;;;4996359;28;20038;-84
2024/04/02 01:31:08;;;;;;;9.75;2.15;;;;;;;;;;4999287;28;19925;-84
2024/04/02 01:33:34;;;;;;;;;;;;;;;;;;4995769;28;20140;-84
2024/04/02 01:36:00;;;;;;;11.52;2.42;;;;;;;;;;5000184;28;20346;-86
2024/04/02 01:38:26;;;;;;;11.82;2.33;;;;;;;;;;4992483;28;20040;-85
2024/04/02 01:40:52;;;;;;;;;;;;;;;;;;4997239;28;20026;-84
2024/04/02 01:43:18;;;;;;;11.73;2.40;;;;;;;;;;4999654;28;20012;-85
2024/04/02 01:45:44;;;;;;;11.65;2.35;;;;;;;;;;4994893;28;20613;-83
2024/04/02 01:48:11;;;;;;;11.27;2.38;;;;;;;;;;4996059;28;20058;-85
2024/04/02 01:50:37;;;;;;;9.68;2.28;;;;;;;;;;4994562;28;20129;-84
2024/04/02 01:53:03;;;;;;;12.68;2.65;;;;;;;;;;5000745;28;20622;-85
2024/04/02 01:55:29;;;;;;;13.10;2.85;;;;;;;;;;4995095;28;20030;-85
2024/04/02 01:57:55;;;;;;;;;;;;;;;;;;5006292;28;20040;-86
2024/04/02 02:00:21;;;;;;;14.75;3.22;;;;;;;;;;4998318;28;19917;-85
2024/04/02 02:02:51;;;;;;;11.45;2.70;;;;;;;;;;4996118;28;20041;-86
2024/04/02 02:05:18;;;;;;;10.68;2.42;;;;;;;;;;5006075;28;20086;-85
2024/04/02 02:07:45;;;;;;;10.75;2.70;;;;;;;;;;5003160;28;20038;-86
2024/04/02 02:10:16;;;;;;;11.60;2.65;;;;;;;;;;5010132;28;20124;-85
2024/04/02 02:12:42;;;;;;;10.70;2.47;;;;;;;;;;5008136;28;20049;-85
2024/04/02 02:15:09;;;;;;;10.95;2.53;;;;;;;;;;5009701;28;20026;-85
2024/04/02 02:17:35;;;;;;;11.43;2.30;;;;;;;;;;5003758;28;20038;-86
2024/04/02 02:20:01;;;;;;;10.30;2.22;;;;;;;;;;5006526;28;20033;-85
2024/04/02 02:22:27;;;;;;;10.10;2.30;;;;;;;;;;4998257;28;20037;-85
2024/04/02 02:24:54;;;;;;;12.25;2.60;;;;;;;;;;5014636;28;20021;-84
2024/04/02 02:27:20;;;;;;;10.05;2.33;;;;;;;;;;5011164;28;20034;-85
2024/04/02 02:29:47;;;;;;;9.75;2.10;;;;;;;;;;5007078;28;20029;-85
2024/04/02 02:32:13;;;;;;;10.85;2.22;;;;;;;;;;5008159;28;20108;-85
2024/04/02 02:34:40;;;;;;;9.05;2.10;;;;;;;;;;4991513;28;20064;-83
2024/04/02 02:37:06;;;;;;;9.10;1.90;;;;;;;;;;4995433;28;20026;-85
2024/04/02 02:39:32;;;;;;;9.40;1.92;;;;;;;;;;4993391;28;20107;-84
2024/04/02 02:41:58;;;;;;;;;;;;;;;;;;4998890;28;20030;-84
2024/04/02 02:44:24;;;;;;;10.27;2.38;;;;;;;;;;4994369;28;19937;-84
2024/04/02 02:46:50;;;;;;;;;;;;;;;;;;4977159;28;20038;-85
2024/04/02 02:49:18;;;;;;;11.30;2.38;;;;;;;;;;4996580;28;19967;-85
2024/04/02 02:51:45;;;;;;;13.30;2.60;;;;;;;;;;4993785;28;23131;-85
2024/04/02 02:54:11;;;;;;;13.27;2.83;;;;;;;;;;4992590;28;20040;-84
2024/04/02 02:56:37;;;;;;;18.20;3.00;;;;;;;;;;4995203;28;20041;-85
2024/04/02 02:59:03;;;;;;;12.23;2.72;;;;;;;;;;5002123;28;20030;-86
2024/04/02 03:01:30;;;;;;;12.77;2.72;;;;;;;;;;5003124;28;20041;-87
2024/04/02 03:03:56;;;;;;;11.07;2.83;;;;;;;;;;5005101;28;20029;-85
2024/04/02 03:06:22;;;;;;;12.27;2.72;;;;;;;;;;5001760;28;20050;-85
2024/04/02 03:08:48;;;;;;;;;;;;;;;;;;4995100;28;20069;-85
2024/04/02 03:11:15;;;;;;;12.48;2.63;;;;;;;;;;4994187;28;19909;-86
2024/04/02 03:13:42;;;;;;;12.93;2.95;;;;;;;;;;4990598;28;20030;-85
2024/04/02 03:16:08;;;;;;;10.75;2.53;;;;;;;;;;4992118;28;20026;-84
2024/04/02 03:18:35;;;;;;;13.05;2.70;;;;;;;;;;4988350;28;20123;-86
2024/04/02 03:21:01;;;;;;;11.52;2.53;;;;;;;;;;4991900;28;20139;-85
2024/04/02 03:23:28;;;;;;;9.82;2.20;;;;;;;;;;4985815;28;20026;-84
2024/04/02 03:25:56;;;;;;;9.57;2.42;;;;;;;;;;4990886;28;20053;-85
2024/04/02 03:28:26;;;;;;;11.50;2.28;;;;;;;;;;4988744;28;20151;-84
2024/04/02 03:30:56;;;;;;;9.48;2.20;;;;;;;;;;4971379;28;20038;-85
2024/04/02 03:33:29;;;;;;;10.75;2.25;;;;;;;;;;4989047;28;20048;-84
2024/04/02 03:36:06;;;;;;;13.73;2.58;;;;;;;;;;4975506;28;20148;-85
2024/04/02 03:38:33;;;;;;;9.73;2.05;;;;;;;;;;4996108;28;20048;-85
2024/04/02 03:41:08;;;;;;;8.80;2.10;;;;;;;;;;4996201;28;20060;-85
2024/04/02 03:43:35;;;;;;;10.25;2.38;;;;;;;;;;4989361;28;20041;-85
2024/04/02 03:46:05;;;;;;;12.48;2.63;;;;;;;;;;4998010;28;20089;-85
2024/04/02 03:48:31;;;;;;;11.05;2.40;;;;;;;;;;4993810;28;20025;-85
2024/04/02 03:50:57;;;;;;;15.23;2.80;;;;;;;;;;4996890;28;20037;-84
2024/04/02 03:53:24;;;;;;;11.15;2.63;;;;;;;;;;4998076;28;20034;-85
2024/04/02 03:55:57;;;;;;;10.02;2.45;;;;;;;;;;4996168;28;20026;-84
2024/04/02 03:58:25;;;;;;;11.93;2.55;;;;;;;;;;4994950;28;20185;-84
2024/04/02 04:00:54;;;;;;;11.48;2.05;;;;;;;;;;4989651;28;20124;-85
2024/04/02 04:03:20;;;;;;;12.18;2.20;;;;;;;;;;4982876;28;20117;-85
2024/04/02 04:05:47;;;;;;;11.60;2.30;;;;;;;;;;4998976;28;20060;-86
2024/04/02 04:08:13;;;;;;;8.70;2.15;;;;;;;;;;4998833;28;20038;-86
2024/04/02 04:10:39;;;;;;;10.02;2.22;;;;;;;;;;5003807;28;20030;-86
2024/04/02 04:13:06;;;;;;;10.60;2.20;;;;;;;;;;5018367;28;20240;-86
2024/04/02 04:15:32;;;;;;;10.88;2.20;;;;;;;;;;5003034;28;20030;-85
2024/04/02 04:17:58;;;;;;;;;;;;;;;;;;5013775;28;20057;-86
2024/04/02 04:20:29;;;;;;;9.95;1.75;;;;;;;;;;5010760;28;19913;-88
2024/04/02 04:22:55;;;;;;;9.18;2.30;;;;;;;;;;5008398;28;20026;-84
2024/04/02 04:25:22;;;;;;;12.52;2.38;;;;;;;;;;5002325;28;20066;-84
2024/04/02 04:27:50;;;;;;;11.05;2.28;;;;;;;;;;4997104;28;20030;-85
2024/04/02 04:30:16;;;;;;;11.43;2.53;;;;;;;;;;4996105;28;20073;-85
2024/04/02 04:32:42;;;;;;;10.55;2.20;;;;;;;;;;4992756;28;20025;-84
2024/04/02 04:35:09;;;;;;;10.38;2.30;;;;;;;;;;4994322;28;20045;-85
2024/04/02 04:37:35;;;;;;;11.82;2.55;;;;;;;;;;4974338;28;20069;-85
2024/04/02 04:40:01;;;;;;;12.60;2.25;;;;;;;;;;4991001;28;20080;-85
2024/04/02 04:42:32;;;;;;;12.85;3.15;;;;;;;;;;4988495;28;20061;-85
2024/04/02 04:44:58;;;;;;;13.70;3.80;;;;;;;;;;4991579;28;20034;-85
2024/04/02 04:47:25;;;;;;;12.32;3.33;;;;;;;;;;4992115;28;20049;-84
2024/04/02 04:49:52;;;;;;;14.65;4.05;;;;;;;;;;4990666;28;20109;-86
2024/04/02 04:52:18;;;;;;;9.88;2.83;;;;;;;;;;4991043;28;20030;-85
2024/04/02 04:54:44;;;;;;;9.75;2.13;;;;;;;;;;4988884;28;20041;-86
2024/04/02 04:57:11;;;;;;;12.45;2.30;;;;;;;;;;4993365;28;20699;-86
2024/04/02 04:59:38;;;;;;;11.77;2.00;;;;;;;;;;4988906;28;20057;-85
2024/04/02 05:02:05;;;;;;;7.38;1.85;;;;;;;;;;4993821;28;20057;-85
2024/04/02 05:04:31;;;;;;;8.95;1.98;;;;;;;;;;4989642;28;20048;-85
2024/04/02 05:06:57;;;;;;;12.20;3.35;;;;;;;;;;4991416;28;20044;-85
2024/04/02 05:09:26;;;;;;;13.85;3.55;;;;;;;;;;4992604;28;20057;-85
2024/04/02 05:11:52;;;;;;;10.68;2.72;;;;;;;;;;4996234;28;20044;-84
2024/04/02 05:14:19;;;;;;;11.23;2.50;;;;;;;;;;4988816;28;20078;-85
2024/04/02 05:16:45;;;;;;;14.50;2.78;;;;;;;;;;4990534;28;20042;-86
2024/04/02 05:19:12;;;;;;;11.73;3.00;;;;;;;;;;4994856;28;20091;-85
2024/04/02 05:21:39;;;;;;;10.07;2.63;;;;;;;;;;4991967;28;20085;-87
2024/04/02 05:24:05;;;;;;;12.43;2.55;;;;;;;;;;4993911;28;20048;-86
2024/04/02 05:26:32;;;;;;;10.20;2.35;;;;;;;;;;4995334;28;20021;-86
2024/04/02 05:28:59;;;;;;;12.57;2.75;;;;;;;;;;5000313;28;20044;-87
2024/04/02 05:31:25;;;;;;;9.85;2.72;;;;;;;;;;4997183;28;20034;-86
2024/04/02 05:33:51;;;;;;;8.40;2.42;;;;;;;;;;4996276;28;20852;-86
2024/04/02 05:36:17;;;;;;;13.90;2.45;;;;;;;;;;4997685;28;20026;-86
2024/04/02 05:38:44;;;;;;;12.35;2.72;;;;;;;;;;4989749;28;20095;-84
2024/04/02 05:41:10;;;;;;;10.38;2.35;;;;;;;;;;4997511;28;20049;-86
2024/04/02 05:43:36;;;;;;;10.23;2.60;;;;;;;;;;4996227;28;20105;-86
2024/04/02 05:46:02;;;;;;;10.80;2.83;;;;;;;;;;4992224;28;20072;-87
2024/04/02 05:48:30;;;;;;;9.95;2.47;;;;;;;;;;4992250;28;20117;-85
2024/04/02 05:50:56;;;;;;;10.93;3.00;;;;;;;;;;4992819;28;20226;-86
2024/04/02 05:53:22;;;;;;;11.07;3.10;;;;;;;;;;4993981;28;20099;-86
2024/04/02 05:55:48;;;;;;;10.57;2.45;;;;;;;;;;4994617;28;20195;-87
2024/04/02 05:58:15;;;;;;;11.55;2.67;;;;;;;;;;4995888;28;20575;-85
2024/04/02 06:00:41;;;;;;;13.65;2.95;;;;;;;;;;4993272;28;20102;-86
2024/04/02 06:03:07;;;;;;;12.52;3.00;;;;;;;;;;4993039;28;20472;-86
2024/04/02 06:05:34;;;;;;;;;;;;;;;;;;4989255;28;20057;-86
2024/04/02 06:08:02;;;;;;;9.83;2.70;;;;;;;;;;4989238;28;19916;-85
2024/04/02 06:10:29;;;;;;;9.75;2.83;;;;;;;;;;4988157;28;20042;-85
2024/04/02 06:12:56;;;;;;;12.43;3.28;;;;;;;;;;4993052;28;20033;-86
2024/04/02 06:15:24;;;;;;;10.15;2.42;;;;;;;;;;4992406;28;20064;-85
2024/04/02 06:17:50;;;;;;;12.18;2.90;;;;;;;;;;4999559;28;20041;-85
2024/04/02 06:20:16;;;;;;;;;;;;;;;;;;4999533;28;20038;-85
2024/04/02 06:22:42;;;;;;;13.55;3.00;;;;;;;;;;4988955;28;19940;-86
2024/04/02 06:25:08;;;;;;;10.93;2.85;;;;;;;;;;4992015;28;20084;-86
2024/04/02 06:27:35;;;;;;;8.45;2.63;;;;;;;;;;4991414;28;20037;-88
2024/04/02 06:30:01;;;;;;;9.93;2.83;;;;;;;;;;4994303;28;20041;-89
2024/04/02 06:32:27;;;;;;;;;;;;;;;;;;4985593;28;20072;-85
2024/04/02 06:34:53;;;;;;;11.75;2.70;;;;;;;;;;4986486;28;19913;-85
2024/04/02 06:37:19;;;;;;;9.10;2.58;;;;;;;;;;4987609;28;20121;-88
2024/04/02 06:39:46;;;;;;;10.75;2.72;;;;;;;;;;4991614;28;21923;-86
2024/04/02 06:42:12;;;;;;;13.75;2.95;;;;;;;;;;4994477;28;20029;-87
2024/04/02 06:44:38;;;;;;;11.07;2.92;;;;;;;;;;4988071;28;20034;-89
2024/04/02 06:47:04;;;;;;;12.77;3.88;;;;;;;;;;4994652;28;20044;-88
2024/04/02 06:49:35;;;;;;;11.98;3.35;;;;;;;;;;4993074;28;20503;-89
2024/04/02 06:52:03;;;;;;;16.52;4.00;;;;;;;;;;4996047;28;20049;-89
2024/04/02 06:54:29;;;;;;;14.02;3.53;;;;;;;;;;4992183;28;20042;-88
2024/04/02 06:56:55;;;;;;;12.13;3.17;;;;;;;;;;4995226;28;20048;-87
2024/04/02 06:59:22;;;;;;;13.80;3.50;;;;;;;;;;4995184;28;20033;-88
2024/04/02 07:01:48;;;;;;;;;;;;;;;;;;4993846;28;20034;-88
2024/04/02 07:04:15;;;;;;;10.45;2.70;;;;;;;;;;4995368;28;19928;-89
2024/04/02 07:06:43;;;;;;;9.60;2.40;;;;;;;;;;4991183;28;20030;-89
2024/04/02 07:09:09;;;;;;;11.20;2.47;;;;;;;;;;4975962;28;20124;-87
2024/04/02 07:11:36;;;;;;;9.63;2.90;;;;;;;;;;4988822;28;20041;-88
2024/04/02 07:14:02;;;;;;;10.90;2.67;;;;;;;;;;4992533;28;20388;-88
2024/04/02 07:16:28;;;;;;;9.60;2.60;;;;;;;;;;4991639;28;20037;-87
2024/04/02 07:18:54;;;;;;;;;;;;;;;;;;4995267;28;20034;-88
2024/04/02 07:21:21;;;;;;;12.65;3.25;;;;;;;;;;4995532;28;19924;-88
2024/04/02 07:23:47;;;;;;;;;;;;;;;;;;4995348;28;20029;-89
2024/04/02 07:26:13;;;;;;;21.52;8.98;;;;;;;;;;4998343;28;19913;-89
2024/04/02 07:28:39;;;;;;;;;;;;;;;;;;4995656;28;20063;-89
2024/04/02 07:31:05;;;;;;;27.50;13.82;;;;;;;;;;5004581;28;20352;-88
2024/04/02 07:33:33;;;;;;;21.17;12.25;;;;;;;;;;5000426;28;20038;-89
2024/04/02 07:36:01;;;;;;;23.70;13.32;;;;;;;;;;4998718;28;20631;-87
2024/04/02 07:38:29;;;;;;;26.05;13.23;;;;;;;;;;5002294;28;20026;-89
2024/04/02 07:40:55;;;;;;;22.65;11.68;;;;;;;;;;4995647;28;20038;-88
2024/04/02 07:43:22;;;;;;;18.63;9.45;;;;;;;;;;5005155;28;20112;-88
2024/04/02 07:45:51;;;;;;;18.08;8.35;;;;;;;;;;5000609;28;20033;-88
2024/04/02 07:48:18;;;;;;;13.45;5.28;;;;;;;;;;5010975;28;20030;-90
2024/04/02 07:50:44;;;;;;;;;;;;;;;;;;5010941;28;20132;-89
2024/04/02 07:53:10;;;;;;;10.60;2.83;;;;;;;;;;5001439;28;20013;-88
2024/04/02 07:55:36;;;;;;;;;;;;;;;;;;4996215;28;20125;-88
2024/04/02 07:58:02;;;;;;;12.05;3.17;;;;;;;;;;4993502;28;20542;-88
2024/04/02 08:00:28;;;;;;;14.10;4.32;;;;;;;;;;4991924;28;20121;-88
2024/04/02 08:02:54;;;;;;;13.50;3.70;;;;;;;;;;4996424;28;20407;-89
2024/04/02 08:05:20;;;;;;;;;;;;;;;;;;4996915;28;20048;-87
2024/04/02 08:07:47;;;;;;;10.55;3.10;;;;;;;;;;4994887;28;20008;-91
2024/04/02 08:10:14;;;;;;;12.60;4.60;;;;;;;;;;4995746;28;20038;-90
2024/04/02 08:12:42;;;;;;;9.60;3.10;;;;;;;;;;4993847;28;20032;-87
2024/04/02 08:15:08;;;;;;;9.52;2.70;;;;;;;;;;4989554;28;20037;-87
2024/04/02 08:17:34;;;;;;;;;;;;;;;;;;4988697;28;20120;-87
2024/04/02 08:20:01;;;;;;;10.20;2.85;;;;;;;;;;4989109;28;20453;-87
2024/04/02 08:22:28;;;;;;;10.82;2.30;;;;;;;;;;4985522;28;20030;-92
2024/04/02 08:24:56;;;;;;;12.13;2.80;;;;;;;;;;4994026;28;20065;-90
2024/04/02 08:27:23;;;;;;;9.50;2.30;;;;;;;;;;4990854;28;20080;-86
2024/04/02 08:29:49;;;;;;;;;;;;;;;;;;4984141;28;20045;-87
2024/04/02 08:32:16;;;;;;;7.75;1.80;;;;;;;;;;4988818;28;19922;-87
2024/04/02 08:34:42;;;;;;;8.45;1.90;;;;;;;;;;4985984;28;20579;-87
2024/04/02 08:37:08;;;;;;;6.82;1.60;;;;;;;;;;4993115;28;20516;-90
2024/04/02 08:39:41;;;;;;;6.60;1.67;;;;;;;;;;4993216;28;20116;-90
2024/04/02 08:42:07;;;;;;;9.18;1.75;;;;;;;;;;4993447;28;20529;-88
2024/04/02 08:44:34;;;;;;;8.43;1.88;;;;;;;;;;4992434;28;20040;-89
2024/04/02 08:47:00;;;;;;;7.50;1.40;;;;;;;;;;4990628;28;20103;-91
2024/04/02 08:49:28;;;;;;;6.30;1.50;;;;;;;;;;4991549;28;20045;-89
2024/04/02 08:51:59;;;;;;;6.13;1.42;;;;;;;;;;5001090;28;20029;-89
2024/04/02 08:54:31;;;;;;;6.55;1.60;;;;;;;;;;4996357;28;20048;-87
2024/04/02 08:56:58;;;;;;;9.27;1.67;;;;;;;;;;5002400;28;20041;-91
2024/04/02 08:59:27;;;;;;;7.53;1.88;;;;;;;;;;4999443;28;20044;-89
2024/04/02 09:01:58;;;;;;;7.65;1.92;;;;;;;;;;5000733;28;20053;-87
2024/04/02 09:04:25;;;;;;;7.45;1.90;;;;;;;;;;4998867;28;20757;-88
2024/04/02 09:06:51;;;;;;;6.93;1.88;;;;;;;;;;4995354;28;20129;-89
2024/04/02 09:09:21;;;;;;;7.13;1.88;;;;;;;;;;4994969;28;20033;-88
2024/04/02 09:11:50;;;;;;;9.13;1.70;;;;;;;;;;4991028;28;20032;-88
2024/04/02 09:14:16;;;;;;;6.57;1.75;;;;;;;;;;4997076;28;20575;-89
2024/04/02 09:16:42;;;;;;;7.38;1.70;;;;;;;;;;4993913;28;20053;-89
2024/04/02 09:19:09;;;;;;;7.00;1.90;;;;;;;;;;4995783;28;20038;-90
2024/04/02 09:21:35;;;;;;;8.80;2.40;;;;;;;;;;4994929;28;20092;-89
2024/04/02 09:24:02;;;;;;;6.95;1.85;;;;;;;;;;4995597;28;20041;-87
2024/04/02 09:26:28;;;;;;;7.95;2.00;;;;;;;;;;4992067;28;20173;-89
2024/04/02 09:28:54;;;;;;;9.20;2.47;;;;;;;;;;4991900;28;20096;-87
2024/04/02 09:31:21;;;;;;;8.63;1.90;;;;;;;;;;4995083;28;20690;-87
2024/04/02 09:33:49;;;;;;;4.88;1.23;;;;;;;;;;4990835;28;20124;-87
2024/04/02 09:36:34;;;;;;;10.90;3.90;;;;;;;;;;4995076;28;20042;-89
2024/04/02 09:39:04;;;;;;;5.53;1.50;;;;;;;;;;5002209;28;20132;-88
2024/04/02 09:41:32;;;;;;;8.65;1.40;;;;;;;;;;4999321;28;20033;-91
2024/04/02 09:44:00;;;;;;;5.18;1.20;;;;;;;;;;5002193;28;20641;-87
2024/04/02 09:46:28;;;;;;;5.15;1.10;;;;;;;;;;4989674;28;20040;-86
2024/04/02 09:48:56;;;;;;;3.97;1.10;;;;;;;;;;4992865;28;20062;-87
2024/04/02 09:51:28;;;;;;;6.38;1.25;;;;;;;;;;4993086;28;20354;-88
2024/04/02 09:53:57;;;;;;;11.85;2.30;;;;;;;;;;4991023;28;20034;-87
2024/04/02 09:56:26;;;;;;;7.40;1.45;;;;;;;;;;4993356;28;20041;-87
2024/04/02 09:58:53;;;;;;;7.18;1.35;;;;;;;;;;4994335;28;20026;-88
2024/04/02 10:01:22;;;;;;;7.07;1.30;;;;;;;;;;4991801;28;20049;-87
2024/04/02 10:03:49;;;;;;;5.18;1.20;;;;;;;;;;4993765;28;20029;-86
2024/04/02 10:06:17;;;;;;;4.75;1.08;;;;;;;;;;4994187;28;20048;-88
2024/04/02 10:08:43;;;;;;;4.90;0.80;;;;;;;;;;4995133;28;20030;-88
2024/04/02 10:11:09;;;;;;;6.50;1.10;;;;;;;;;;4997918;28;20038;-89
2024/04/02 10:13:39;;;;;;;5.68;1.20;;;;;;;;;;5006529;28;20060;-88
2024/04/02 10:16:09;;;;;;;5.18;1.15;;;;;;;;;;5010330;28;20105;-88
2024/04/02 10:18:42;;;;;;;7.18;1.40;;;;;;;;;;5005705;28;20578;-88
2024/04/02 10:21:12;;;;;;;5.30;0.95;;;;;;;;;;5012599;28;20041;-87
2024/04/02 10:23:39;;;;;;;3.42;0.95;;;;;;;;;;5009120;28;20022;-89
2024/04/02 10:26:09;;;;;;;5.88;1.00;;;;;;;;;;5005686;28;20042;-89
2024/04/02 10:28:35;;;;;;;5.32;1.00;;;;;;;;;;4988123;28;20121;-89
2024/04/02 10:31:01;;;;;;;5.43;1.40;;;;;;;;;;5001377;28;20049;-88
2024/04/02 10:33:29;;;;;;;4.75;1.13;;;;;;;;;;4997865;28;20033;-86
2024/04/02 10:35:55;;;;;;;4.55;0.90;;;;;;;;;;5006266;28;20052;-89
2024/04/02 10:38:22;;;;;;;5.53;1.38;;;;;;;;;;5017250;28;20030;-89
2024/04/02 10:40:48;;;;;;;5.88;1.30;;;;;;;;;;5014334;28;20034;-89
2024/04/02 10:43:14;;;;;;;5.25;1.27;;;;;;;;;;5017426;28;20017;-88
2024/04/02 10:45:40;;;;;;;5.15;1.30;;;;;;;;;;5018464;28;20106;-88
2024/04/02 10:48:07;;;;;;;6.60;1.30;;;;;;;;;;5020621;28;20021;-88
2024/04/02 10:50:33;;;;;;;2.50;0.90;;;;;;;;;;5015465;28;20038;-88
2024/04/02 10:52:59;;;;;;;6.03;1.10;;;;;;;;;;5015603;28;20057;-89
2024/04/02 10:55:26;;;;;;;3.90;1.00;;;;;;;;;;5012749;28;20030;-88
2024/04/02 10:57:52;;;;;;;3.45;1.00;;;;;;;;;;5002381;28;20057;-88
2024/04/02 11:00:19;;;;;;;4.30;1.00;;;;;;;;;;5006738;28;20041;-88
2024/04/02 11:02:45;;;;;;;3.72;1.10;;;;;;;;;;5022215;28;20034;-88
2024/04/02 11:05:13;;;;;;;5.93;1.50;;;;;;;;;;5019721;28;20045;-88
2024/04/02 11:07:42;;;;;;;5.72;1.30;;;;;;;;;;5003287;28;20048;-88
2024/04/02 11:10:09;;;;;;;4.75;1.23;;;;;;;;;;4997900;28;20033;-85
2024/04/02 11:12:35;;;;;;;6.93;1.17;;;;;;;;;;4993278;28;20026;-87
2024/04/02 11:15:01;;;;;;;4.63;0.98;;;;;;;;;;4993720;28;20084;-85
2024/04/02 11:17:29;;;;;;;4.25;1.10;;;;;;;;;;4989583;28;20034;-86
2024/04/02 11:19:57;;;;;;;4.88;1.25;;;;;;;;;;4990638;28;20026;-86
2024/04/02 11:25:14;;;;;;;6.47;1.40;;;;;;;;;;4991319;28;20044;-85
2024/04/02 11:27:42;;;;;;;4.97;1.10;;;;;;;;;;4984452;28;20504;-90
2024/04/02 11:30:09;;;;;;;4.22;1.10;;;;;;;;;;4987002;28;20113;-90
2024/04/02 11:32:36;;;;;;;5.60;1.23;;;;;;;;;;4982754;28;20037;-88
2024/04/02 11:35:03;;;;;;;4.80;1.17;;;;;;;;;;4992785;28;20124;-89
2024/04/02 11:37:30;;;;;;;7.53;1.17;;;;;;;;;;4989654;28;20216;-89
2024/04/02 11:39:57;;;;;;;7.18;1.85;;;;;;;;;;4994560;28;20022;-86
2024/04/02 11:42:24;;;;;;;9.70;1.67;;;;;;;;;;4997607;28;20037;-87
2024/04/02 11:44:51;;;;;;;6.10;1.20;;;;;;;;;;4978174;28;20030;-86
2024/04/02 11:47:18;;;;;;;6.00;1.20;;;;;;;;;;4987889;28;20058;-88
2024/04/02 11:49:44;;;;;;;3.72;1.02;;;;;;;;;;4989459;28;20031;-87
2024/04/02 11:52:10;;;;;;;5.50;1.30;;;;;;;;;;4993196;28;20061;-88
2024/04/02 11:54:37;;;;;;;5.82;1.48;;;;;;;;;;4988904;28;20026;-87
2024/04/02 12:00:11;;;;;;;5.82;1.50;;;;;;;;;;4990709;28;20045;-86
2024/04/02 12:02:47;;;;;;;5.43;1.38;;;;;;;;;;4990547;28;20088;-86
2024/04/02 12:05:15;;;;;;;7.47;1.33;;;;;;;;;;5000203;28;20117;-85
2024/04/02 12:07:42;;;;;;;7.93;1.60;;;;;;;;;;4985622;28;20028;-86
2024/04/02 12:10:09;;;;;;;6.93;1.50;;;;;;;;;;4989666;28;20455;-84
2024/04/02 12:12:36;;;;;;;8.50;1.60;;;;;;;;;;4988881;28;20021;-87
2024/04/02 12:15:03;;;;;;;7.70;1.77;;;;;;;;;;4994558;28;20029;-88
2024/04/02 12:17:33;;;;;;;6.85;1.65;;;;;;;;;;4990055;28;20116;-86
2024/04/02 12:20:00;;;;;;;9.88;1.80;;;;;;;;;;4992576;28;20033;-90
2024/04/02 12:22:27;;;;;;;8.68;1.75;;;;;;;;;;4991209;28;20044;-87
2024/04/02 12:24:54;;;;;;;6.97;1.58;;;;;;;;;;5001281;28;20022;-88
2024/04/02 12:27:21;;;;;;;8.65;1.30;;;;;;;;;;4994660;28;20038;-88
2024/04/02 12:29:53;;;;;;;8.05;1.30;;;;;;;;;;4992603;28;20029;-87
2024/04/02 12:32:19;;;;;;;7.28;1.50;;;;;;;;;;4999450;28;20104;-88
2024/04/02 12:34:47;;;;;;;6.82;1.42;;;;;;;;;;5001480;28;20044;-88
2024/04/02 12:37:14;;;;;;;5.82;1.30;;;;;;;;;;4999225;28;20022;-88
2024/04/02 12:39:43;;;;;;;6.55;1.45;;;;;;;;;;4993408;28;20535;-89
2024/04/02 12:42:10;;;;;;;5.43;1.38;;;;;;;;;;4997491;28;20034;-89
2024/04/02 12:44:39;;;;;;;6.75;1.35;;;;;;;;;;4997167;28;20129;-85
2024/04/02 12:47:05;;;;;;;6.22;1.40;;;;;;;;;;4989663;28;20062;-85
2024/04/02 12:49:33;;;;;;;7.35;1.55;;;;;;;;;;4987272;28;20030;-87
2024/04/02 12:51:59;;;;;;;6.65;1.30;;;;;;;;;;4987925;28;20071;-85
2024/04/02 12:54:25;;;;;;;5.70;1.30;;;;;;;;;;4989281;28;20025;-85
2024/04/02 12:56:51;;;;;;;6.03;1.20;;;;;;;;;;5003705;28;20964;-85
2024/04/02 12:59:18;;;;;;;5.72;1.20;;;;;;;;;;4987407;28;20025;-86
2024/04/02 13:01:44;;;;;;;5.47;1.15;;;;;;;;;;4982924;28;20045;-86
2024/04/02 13:04:11;;;;;;;6.00;1.10;;;;;;;;;;4988201;28;20022;-87
2024/04/02 13:06:37;;;;;;;5.85;1.05;;;;;;;;;;4984728;28;20038;-85
2024/04/02 13:09:05;;;;;;;3.78;0.80;;;;;;;;;;4990390;28;20045;-86
2024/04/02 13:11:31;;;;;;;6.32;1.27;;;;;;;;;;4983891;28;20033;-85
2024/04/02 13:13:58;;;;;;;6.68;1.27;;;;;;;;;;4987617;28;20057;-84
2024/04/02 13:16:31;;;;;;;4.05;1.02;;;;;;;;;;4987471;28;20103;-83
2024/04/02 13:18:59;;;;;;;5.43;1.08;;;;;;;;;;4988430;28;20033;-86
2024/04/02 13:21:26;;;;;;;5.07;1.02;;;;;;;;;;4984914;28;20034;-85
2024/04/02 13:23:54;;;;;;;4.50;0.95;;;;;;;;;;5000328;28;20162;-84
2024/04/02 13:26:22;;;;;;;5.22;1.10;;;;;;;;;;4998861;28;20065;-86
2024/04/02 13:28:51;;;;;;;5.93;1.17;;;;;;;;;;4993040;28;20057;-88
2024/04/02 13:31:19;;;;;;;5.57;1.02;;;;;;;;;;4993084;28;20054;-85
2024/04/02 13:33:46;;;;;;;6.63;1.20;;;;;;;;;;4995785;28;20041;-89
2024/04/02 13:36:14;;;;;;;6.90;1.50;;;;;;;;;;5003613;28;20037;-88
2024/04/02 13:38:41;;;;;;;5.43;1.25;;;;;;;;;;5004453;28;20038;-88
2024/04/02 13:41:09;;;;;;;5.85;1.35;;;;;;;;;;5012991;28;20044;-89
2024/04/02 13:43:35;;;;;;;6.45;1.33;;;;;;;;;;5002093;28;20145;-88
2024/04/02 13:46:02;;;;;;;5.93;1.05;;;;;;;;;;4995629;28;20032;-88
2024/04/02 13:48:29;;;;;;;8.15;1.23;;;;;;;;;;4992529;28;20045;-86
2024/04/02 13:51:02;;;;;;;5.32;0.90;;;;;;;;;;4991347;28;20033;-85
2024/04/02 13:53:29;;;;;;;6.45;1.20;;;;;;;;;;4989497;28;20037;-85
2024/04/02 13:55:57;;;;;;;5.93;0.93;;;;;;;;;;4990963;28;20026;-84
2024/04/02 13:58:23;;;;;;;6.30;1.00;;;;;;;;;;5003954;28;20026;-85
2024/04/02 14:00:50;;;;;;;6.40;1.13;;;;;;;;;;5002344;28;20133;-84
2024/04/02 14:03:16;;;;;;;4.10;0.93;;;;;;;;;;5004776;28;20065;-86
2024/04/02 14:05:44;;;;;;;7.47;1.10;;;;;;;;;;4997030;28;20018;-86
2024/04/02 14:08:11;;;;;;;5.32;1.00;;;;;;;;;;4994625;28;20105;-82
2024/04/02 14:10:38;;;;;;;5.13;0.90;;;;;;;;;;4989143;28;21093;-83
2024/04/02 14:13:10;;;;;;;6.22;1.00;;;;;;;;;;5003093;28;20017;-90
2024/04/02 14:15:38;;;;;;;5.82;1.05;;;;;;;;;;5001243;28;20037;-86
2024/04/02 14:18:04;;;;;;;4.05;0.90;;;;;;;;;;4998367;28;20032;-86
2024/04/02 14:20:31;;;;;;;4.93;0.88;;;;;;;;;;4989856;28;20152;-86
2024/04/02 14:22:57;;;;;;;4.00;0.70;;;;;;;;;;4991635;28;20048;-86
2024/04/02 14:25:24;;;;;;;6.05;1.10;;;;;;;;;;4992348;28;20111;-85
2024/04/02 14:27:52;;;;;;;4.60;0.90;;;;;;;;;;4995898;28;20113;-88
2024/04/02 14:30:18;;;;;;;4.90;1.02;;;;;;;;;;4999430;28;20049;-85
2024/04/02 14:32:46;;;;;;;5.25;1.00;;;;;;;;;;5002660;28;21572;-86
2024/04/02 14:35:12;;;;;;;5.70;1.10;;;;;;;;;;4996834;28;20041;-86
2024/04/02 14:37:38;;;;;;;4.90;0.98;;;;;;;;;;4990527;28;20041;-86
2024/04/02 14:40:05;;;;;;;5.85;1.13;;;;;;;;;;4993122;28;20040;-86
2024/04/02 14:42:33;;;;;;;4.75;0.93;;;;;;;;;;4994042;28;20104;-85
2024/04/02 14:45:00;;;;;;;4.60;0.90;;;;;;;;;;4993662;28;20041;-84
2024/04/02 14:47:28;;;;;;;5.88;1.10;;;;;;;;;;4993899;28;20048;-85
2024/04/02 14:49:55;;;;;;;5.72;1.30;;;;;;;;;;5000213;28;20026;-86